Time;durP1;ratioP1;P1;durP2;ratioP2;P2;SDS_P1;SDS_P2;PMS_P1;PMS_P2;Temp;Humidity;BMP_temperature;BMP_pressure;BME280_temperature;BME280_humidity;BME280_pressure;Samples;Min_cycle;Max_cycle;Signal;HPM_P1;HPM_P2
2023/11/16 00:01:32;;;;;;;21.80;12.10;;;;;;;3.82;100.00;100497.36;105406;1259;98337;-75
2023/11/16 00:04:17;;;;;;;21.50;12.10;;;;;;;3.80;100.00;100492.98;105374;1259;97867;-76
2023/11/16 00:07:06;;;;;;;18.70;12.30;;;;;;;3.78;100.00;100495.91;105358;1254;102214;-78
2023/11/16 00:09:52;;;;;;;21.90;12.50;;;;;;;3.77;100.00;100498.89;105315;1263;99808;-75
2023/11/16 00:12:39;;;;;;;25.70;13.30;;;;;;;3.73;100.00;100497.68;105334;1257;98013;-76
2023/11/16 00:15:24;;;;;;;19.70;12.40;;;;;;;3.68;100.00;100503.27;105541;1257;97957;-77
2023/11/16 00:18:10;;;;;;;20.00;12.10;;;;;;;3.65;100.00;100505.15;105517;1257;97838;-76
2023/11/16 00:20:56;;;;;;;20.30;12.70;;;;;;;3.61;100.00;100509.77;105461;1257;102180;-76
2023/11/16 00:23:42;;;;;;;21.70;13.40;;;;;;;3.59;100.00;100508.92;105369;1267;99430;-76
2023/11/16 00:26:28;;;;;;;22.00;13.60;;;;;;;3.56;100.00;100511.88;105334;1259;99285;-78
2023/11/16 00:29:16;;;;;;;23.00;12.40;;;;;;;3.51;100.00;100514.45;105272;1264;97946;-77
2023/11/16 00:32:01;;;;;;;21.10;13.40;;;;;;;3.49;100.00;100516.98;105453;1259;97858;-76
2023/11/16 00:34:47;;;;;;;25.30;14.90;;;;;;;3.48;100.00;100513.72;105477;1259;101301;-78
2023/11/16 00:37:34;;;;;;;22.90;13.60;;;;;;;3.46;100.00;100512.44;105496;1255;100239;-78
2023/11/16 00:40:22;;;;;;;29.90;14.90;;;;;;;3.45;100.00;100513.74;105459;1263;99059;-76
2023/11/16 00:43:11;;;;;;;25.00;14.70;;;;;;;3.42;100.00;100512.84;105581;1257;98853;-76
2023/11/16 00:45:59;;;;;;;25.90;14.80;;;;;;;3.37;100.00;100514.90;105464;1257;98480;-77
2023/11/16 00:48:45;;;;;;;28.00;15.40;;;;;;;3.30;100.00;100516.09;105567;1260;101569;-77
2023/11/16 00:51:32;;;;;;;29.10;16.00;;;;;;;3.25;100.00;100519.23;105461;1259;100129;-76
2023/11/16 00:54:18;;;;;;;25.00;14.90;;;;;;;3.22;100.00;100519.14;105465;1259;130386;-77
2023/11/16 00:57:03;;;;;;;24.80;15.80;;;;;;;3.18;100.00;100521.48;105480;1260;97960;-76
2023/11/16 00:59:49;;;;;;;23.20;14.10;;;;;;;3.15;100.00;100523.16;105535;1259;97945;-76
2023/11/16 01:02:35;;;;;;;24.70;14.30;;;;;;;3.11;100.00;100520.14;105515;1255;101490;-77
2023/11/16 01:05:22;;;;;;;22.30;13.80;;;;;;;3.10;100.00;100523.10;105568;1259;99470;-77
2023/11/16 01:08:09;;;;;;;27.70;14.50;;;;;;;3.10;100.00;100529.23;105648;1259;98760;-78
2023/11/16 01:10:57;;;;;;;24.40;14.20;;;;;;;3.10;100.00;100533.48;105676;1257;97958;-79
2023/11/16 01:13:44;;;;;;;28.50;13.90;;;;;;;3.10;100.00;100534.84;106878;1257;98478;-78
2023/11/16 01:16:35;;;;;;;21.10;14.30;;;;;;;3.11;100.00;100541.70;105594;1259;101450;-78
2023/11/16 01:19:25;;;;;;;28.90;14.60;;;;;;;3.10;100.00;100546.71;105640;1257;100327;-78
2023/11/16 01:22:15;;;;;;;24.90;14.40;;;;;;;3.08;100.00;100550.92;105657;1258;98443;-79
2023/11/16 01:25:00;;;;;;;22.00;14.30;;;;;;;3.06;100.00;100552.20;105658;1259;98091;-79
2023/11/16 01:27:51;;;;;;;22.50;13.90;;;;;;;3.01;100.00;100552.98;105545;1270;97966;-77
2023/11/16 01:30:37;;;;;;;25.60;15.60;;;;;;;2.98;100.00;100555.02;105538;1262;102460;-77
2023/11/16 01:33:23;;;;;;;28.10;15.70;;;;;;;2.94;100.00;100556.33;105487;1260;100025;-77
2023/11/16 01:36:09;;;;;;;20.60;14.50;;;;;;;2.91;100.00;100554.66;105600;1257;98080;-77
2023/11/16 01:38:57;;;;;;;22.40;13.70;;;;;;;2.88;100.00;100552.64;105565;1260;97982;-77
2023/11/16 01:41:43;;;;;;;26.30;15.30;;;;;;;2.87;100.00;100555.23;105571;1262;98398;-78
2023/11/16 01:44:29;;;;;;;23.90;14.90;;;;;;;2.85;100.00;100554.52;105573;1260;102693;-77
2023/11/16 01:47:14;;;;;;;23.50;15.50;;;;;;;2.82;100.00;100555.09;105475;1260;99070;-77
2023/11/16 01:50:00;;;;;;;27.20;15.00;;;;;;;2.81;100.00;100552.90;105547;1258;98793;-76
2023/11/16 01:52:46;;;;;;;25.80;14.30;;;;;;;2.80;100.00;100553.53;105506;1266;98913;-77
2023/11/16 01:55:34;;;;;;;29.10;15.40;;;;;;;2.80;100.00;100557.63;105434;1260;97989;-76
2023/11/16 01:58:19;;;;;;;24.00;14.30;;;;;;;2.80;100.00;100560.21;105354;1257;102972;-76
2023/11/16 02:01:06;;;;;;;24.80;13.90;;;;;;;2.78;100.00;100561.96;105580;1262;99321;-79
2023/11/16 02:03:53;;;;;;;24.50;14.00;;;;;;;2.77;100.00;100566.48;106270;1260;98492;-78
2023/11/16 02:06:40;;;;;;;26.10;14.70;;;;;;;2.77;100.00;100569.70;105423;1267;97962;-76
2023/11/16 02:09:25;;;;;;;24.10;13.60;;;;;;;2.75;100.00;100570.09;105367;1259;97890;-75
2023/11/16 02:12:13;;;;;;;21.80;13.00;;;;;;;2.75;100.00;100570.27;105457;1257;101327;-78
2023/11/16 02:14:59;;;;;;;20.80;13.30;;;;;;;2.75;100.00;100565.30;105429;1258;99055;-78
2023/11/16 02:17:44;;;;;;;26.20;14.20;;;;;;;2.74;100.00;100564.80;105292;1258;98242;-77
2023/11/16 02:20:31;;;;;;;24.60;14.20;;;;;;;2.72;100.00;100561.32;105564;1260;98475;-78
2023/11/16 02:23:20;;;;;;;24.70;14.30;;;;;;;2.67;100.00;100564.94;105572;1260;98395;-79
2023/11/16 02:26:07;;;;;;;27.20;14.20;;;;;;;2.65;100.00;100569.55;105695;1263;101341;-78
2023/11/16 02:28:53;;;;;;;24.10;13.90;;;;;;;2.65;100.00;100576.73;105518;1260;100070;-78
2023/11/16 02:31:38;;;;;;;24.90;13.80;;;;;;;2.63;100.00;100582.21;105386;1260;99170;-77
2023/11/16 02:34:24;;;;;;;28.80;15.40;;;;;;;2.60;100.00;100581.96;105470;1260;97956;-75
2023/11/16 02:37:09;;;;;;;29.60;16.00;;;;;;;2.61;100.00;100586.70;105511;1260;97983;-77
2023/11/16 02:39:56;;;;;;;34.70;15.40;;;;;;;2.59;100.00;100589.80;105549;1259;101321;-77
2023/11/16 02:42:43;;;;;;;39.80;14.50;;;;;;;2.59;100.00;100597.60;105417;1264;100787;-76
2023/11/16 02:45:28;;;;;;;29.30;15.60;;;;;;;2.59;100.00;100601.85;105222;1257;97988;-77
2023/11/16 02:48:15;;;;;;;32.60;15.00;;;;;;;2.58;100.00;100601.58;105494;1260;97938;-77
2023/11/16 02:51:01;;;;;;;49.90;16.90;;;;;;;2.54;100.00;100597.55;105419;1261;99676;-78
2023/11/16 02:53:46;;;;;;;40.30;15.40;;;;;;;2.50;100.00;100594.52;105475;1257;102220;-77
2023/11/16 02:56:32;;;;;;;36.20;16.10;;;;;;;2.47;100.00;100592.87;105505;1260;99793;-77
2023/11/16 02:59:19;;;;;;;35.30;14.00;;;;;;;2.47;100.00;100592.14;105476;1257;99297;-77
2023/11/16 03:02:07;;;;;;;36.30;15.00;;;;;;;2.50;100.00;100595.64;105480;1257;97870;-76
2023/11/16 03:04:54;;;;;;;25.70;14.80;;;;;;;2.52;100.00;100599.27;105416;1268;97899;-76
2023/11/16 03:07:41;;;;;;;26.80;14.80;;;;;;;2.52;100.00;100602.42;105403;1260;102585;-76
2023/11/16 03:10:28;;;;;;;55.90;15.40;;;;;;;2.54;100.00;100609.13;105518;1260;99100;-76
2023/11/16 03:13:16;;;;;;;52.10;14.10;;;;;;;2.53;100.00;100608.38;105668;1261;98687;-77
2023/11/16 03:16:05;;;;;;;38.60;14.10;;;;;;;2.48;100.00;100612.88;105450;1264;98055;-76
2023/11/16 03:18:50;;;;;;;59.90;13.40;;;;;;;2.43;100.00;100615.46;105532;1269;97960;-76
2023/11/16 03:21:36;;;;;;;72.40;14.90;;;;;;;2.39;100.00;100626.04;105525;1258;102625;-77
2023/11/16 03:24:24;;;;;;;49.80;13.30;;;;;;;2.31;100.00;100635.14;105476;1260;100383;-76
2023/11/16 03:27:11;;;;;;;32.00;11.50;;;;;;;2.22;100.00;100642.66;105506;1260;97867;-78
2023/11/16 03:29:57;;;;;;;46.90;12.40;;;;;;;2.18;100.00;100649.48;105378;1257;97951;-77
2023/11/16 03:32:45;;;;;;;26.20;11.60;;;;;;;2.12;100.00;100644.56;105387;1260;98523;-76
2023/11/16 03:35:30;;;;;;;48.10;12.70;;;;;;;2.09;100.00;100641.66;105568;1260;101333;-77
2023/11/16 03:38:18;;;;;;;41.30;11.50;;;;;;;2.07;100.00;100642.85;105455;1257;99991;-77
2023/11/16 03:41:06;;;;;;;46.30;11.40;;;;;;;2.03;100.00;100642.70;105443;1259;98524;-77
2023/11/16 03:43:52;;;;;;;25.00;10.70;;;;;;;2.00;100.00;100640.64;105468;1261;97943;-77
2023/11/16 03:46:38;;;;;;;55.30;12.50;;;;;;;2.02;100.00;100642.42;105472;1256;98450;-78
2023/11/16 03:49:24;;;;;;;31.60;11.80;;;;;;;2.04;100.00;100642.58;105481;1267;101411;-78
2023/11/16 03:52:10;;;;;;;24.60;12.80;;;;;;;2.08;100.00;100641.55;105470;1260;99084;-78
2023/11/16 03:54:58;;;;;;;29.40;11.90;;;;;;;2.13;100.00;100637.08;105470;1256;98535;-77
2023/11/16 03:57:44;;;;;;;24.80;11.40;;;;;;;2.16;100.00;100636.60;105495;1264;98504;-76
2023/11/16 04:00:31;;;;;;;32.10;12.00;;;;;;;2.19;100.00;100634.30;105549;1260;99158;-76
2023/11/16 04:03:17;;;;;;;40.80;11.50;;;;;;;2.21;100.00;100631.09;105477;1259;102635;-77
2023/11/16 04:06:02;;;;;;;24.40;11.20;;;;;;;2.22;100.00;100634.38;105541;1258;99412;-78
2023/11/16 04:08:49;;;;;;;30.40;12.20;;;;;;;2.22;100.00;100642.13;105446;1259;98402;-77
2023/11/16 04:11:42;;;;;;;32.40;11.10;;;;;;;2.22;100.00;100645.97;105593;1260;97955;-77
2023/11/16 04:14:28;;;;;;;47.00;13.10;;;;;;;2.22;100.00;100648.08;105644;1258;98537;-78
2023/11/16 04:17:13;;;;;;;27.60;11.50;;;;;;;2.21;100.00;100649.05;105527;1258;102263;-77
2023/11/16 04:19:59;;;;;;;28.70;12.20;;;;;;;2.20;100.00;100646.81;105579;1261;99154;-77
2023/11/16 04:22:44;;;;;;;34.10;12.30;;;;;;;2.21;100.00;100646.77;105548;1263;98963;-76
2023/11/16 04:25:33;;;;;;;24.80;13.20;;;;;;;2.21;100.00;100650.27;105491;1257;98506;-76
2023/11/16 04:28:19;;;;;;;31.00;13.00;;;;;;;2.20;100.00;100654.75;105490;1257;98852;-77
2023/11/16 04:31:05;;;;;;;28.80;14.50;;;;;;;2.20;100.00;100661.09;105459;1261;102074;-76
2023/11/16 04:33:57;;;;;;;26.70;14.90;;;;;;;2.20;100.00;100662.69;105542;1257;99883;-77
2023/11/16 04:36:42;;;;;;;36.20;12.70;;;;;;;2.20;100.00;100667.80;107868;1256;99478;-77
2023/11/16 04:39:28;;;;;;;34.10;12.50;;;;;;;2.16;100.00;100670.50;105599;1260;98077;-77
2023/11/16 04:42:13;;;;;;;48.40;12.20;;;;;;;2.11;100.00;100671.02;105625;1257;98510;-77
2023/11/16 04:44:59;;;;;;;44.70;12.50;;;;;;;2.09;100.00;100663.70;105512;1259;102607;-75
2023/11/16 04:47:46;;;;;;;65.10;12.70;;;;;;;2.06;100.00;100665.01;105597;1260;100527;-77
2023/11/16 04:50:32;;;;;;;40.50;11.80;;;;;;;2.02;100.00;100668.81;105441;1260;99709;-78
2023/11/16 04:53:18;;;;;;;32.30;12.70;;;;;;;2.03;100.00;100671.92;105556;1257;98557;-78
2023/11/16 04:56:06;;;;;;;24.50;11.80;;;;;;;2.05;100.00;100673.52;105652;1257;99129;-76
2023/11/16 04:58:52;;;;;;;24.60;11.30;;;;;;;2.05;100.00;100674.92;105673;1257;103432;-77
2023/11/16 05:01:37;;;;;;;27.90;10.70;;;;;;;2.01;100.00;100668.27;105670;1258;99108;-77
2023/11/16 05:04:23;;;;;;;28.30;11.00;;;;;;;1.98;100.00;100672.75;105617;1257;98539;-76
2023/11/16 05:07:09;;;;;;;17.00;10.00;;;;;;;1.96;100.00;100680.45;105449;1257;98051;-77
2023/11/16 05:09:58;;;;;;;17.70;9.80;;;;;;;1.95;100.00;100682.14;105447;1258;98396;-77
2023/11/16 05:12:48;;;;;;;18.90;10.80;;;;;;;1.94;100.00;100683.13;105327;1261;103730;-77
2023/11/16 05:15:33;;;;;;;35.10;10.40;;;;;;;1.94;100.00;100685.75;105302;1261;99163;-78
2023/11/16 05:18:19;;;;;;;25.20;10.90;;;;;;;1.86;100.00;100684.30;105375;1257;97992;-78
2023/11/16 05:21:05;;;;;;;43.30;12.10;;;;;;;1.76;100.00;100684.83;105650;1260;97963;-77
2023/11/16 05:23:51;;;;;;;18.60;10.30;;;;;;;1.73;100.00;100689.48;105560;1256;98503;-76
2023/11/16 05:26:38;;;;;;;19.20;10.30;;;;;;;1.72;100.00;100693.41;105523;1257;103267;-76
2023/11/16 05:29:24;;;;;;;48.00;10.30;;;;;;;1.70;100.00;100691.51;105613;1260;99065;-78
2023/11/16 05:32:10;;;;;;;15.90;9.90;;;;;;;1.63;100.00;100692.27;105541;1263;98541;-78
2023/11/16 05:34:57;;;;;;;34.40;11.40;;;;;;;1.62;100.00;100694.32;105387;1268;99320;-78
2023/11/16 05:37:42;;;;;;;28.30;12.10;;;;;;;1.59;100.00;100698.73;105552;1260;98475;-77
2023/11/16 05:40:29;;;;;;;25.80;11.40;;;;;;;1.59;100.00;100700.54;105356;1259;102141;-77
2023/11/16 05:43:16;;;;;;;24.90;11.40;;;;;;;1.60;100.00;100701.52;105590;1258;99944;-78
2023/11/16 05:46:01;;;;;;;34.00;11.20;;;;;;;1.59;100.00;100707.71;105714;1260;99043;-77
2023/11/16 05:48:48;;;;;;;31.20;11.10;;;;;;;1.58;100.00;100715.23;105740;1259;98750;-78
2023/11/16 05:51:33;;;;;;;25.70;13.30;;;;;;;1.56;100.00;100714.86;105834;1257;98405;-79
2023/11/16 05:54:20;;;;;;;40.30;14.10;;;;;;;1.57;100.00;100715.65;105765;1258;101355;-78
2023/11/16 05:57:07;;;;;;;24.30;13.40;;;;;;;1.59;100.00;100719.16;105619;1256;99114;-78
2023/11/16 05:59:52;;;;;;;37.00;15.20;;;;;;;1.63;100.00;100722.05;105799;1257;98650;-76
2023/11/16 06:02:39;;;;;;;36.70;13.70;;;;;;;1.62;100.00;100721.39;105631;1258;98891;-78
2023/11/16 06:05:26;;;;;;;31.40;12.80;;;;;;;1.57;100.00;100720.59;105616;1260;98478;-76
2023/11/16 06:08:11;;;;;;;39.50;15.80;;;;;;;1.53;100.00;100720.53;105845;1260;102624;-79
2023/11/16 06:10:57;;;;;;;37.70;13.60;;;;;;;1.52;100.00;100718.69;105609;1260;100428;-76
2023/11/16 06:13:42;;;;;;;35.80;15.30;;;;;;;1.53;100.00;100719.69;105386;1257;99135;-77
2023/11/16 06:16:28;;;;;;;40.20;15.70;;;;;;;1.48;100.00;100721.66;105429;1260;97938;-77
2023/11/16 06:19:14;;;;;;;33.50;16.80;;;;;;;1.42;100.00;100716.89;105401;1260;97957;-78
2023/11/16 06:22:00;;;;;;;26.50;15.70;;;;;;;1.42;100.00;100712.52;105435;1257;101374;-77
2023/11/16 06:24:45;;;;;;;37.00;14.20;;;;;;;1.44;100.00;100708.59;105383;1257;99153;-77
2023/11/16 06:27:32;;;;;;;50.20;16.80;;;;;;;1.44;100.00;100708.28;105589;1260;98942;-76
2023/11/16 06:30:18;;;;;;;40.20;15.60;;;;;;;1.39;100.00;100708.36;105418;1261;98094;-77
2023/11/16 06:33:04;;;;;;;52.20;17.50;;;;;;;1.35;100.00;100711.80;105531;1260;97962;-78
2023/11/16 06:35:50;;;;;;;36.10;15.40;;;;;;;1.35;100.00;100715.55;105382;1256;101489;-76
2023/11/16 06:38:35;;;;;;;38.30;16.40;;;;;;;1.34;100.00;100720.39;105459;1259;99123;-77
2023/11/16 06:41:21;;;;;;;41.50;16.10;;;;;;;1.35;100.00;100716.97;105628;1259;98615;-78
2023/11/16 06:44:07;;;;;;;27.40;16.90;;;;;;;1.39;100.00;100717.48;105557;1260;97935;-78
2023/11/16 06:46:53;;;;;;;31.10;17.10;;;;;;;1.42;100.00;100716.85;105473;1260;98478;-77
2023/11/16 06:49:41;;;;;;;25.20;14.90;;;;;;;1.43;100.00;100714.85;105388;1260;101368;-77
2023/11/16 06:52:27;;;;;;;54.60;15.60;;;;;;;1.47;100.00;100711.02;105435;1259;101347;-77
2023/11/16 06:55:14;;;;;;;79.40;26.60;;;;;;;1.48;100.00;100708.46;105447;1257;99215;-77
2023/11/16 06:57:59;;;;;;;69.50;23.20;;;;;;;1.48;100.00;100705.83;105471;1257;97871;-76
2023/11/16 07:00:50;;;;;;;49.90;18.00;;;;;;;1.47;100.00;100707.86;105440;1264;98392;-77
2023/11/16 07:03:36;;;;;;;42.30;18.40;;;;;;;1.42;100.00;100706.52;105437;1254;101521;-76
2023/11/16 07:06:21;;;;;;;32.30;18.20;;;;;;;1.41;100.00;100710.48;105425;1258;99954;-77
2023/11/16 07:09:07;;;;;;;58.00;17.80;;;;;;;1.42;100.00;100715.65;105507;1272;98043;-77
2023/11/16 07:11:52;;;;;;;44.90;17.40;;;;;;;1.44;100.00;100718.31;105387;1256;99141;-77
2023/11/16 07:14:38;;;;;;;34.30;16.50;;;;;;;1.45;100.00;100722.07;105549;1256;98397;-78
2023/11/16 07:17:25;;;;;;;28.00;15.40;;;;;;;1.46;100.00;100721.80;105477;1257;101373;-76
2023/11/16 07:20:11;;;;;;;27.70;15.40;;;;;;;1.44;100.00;100726.39;105692;1257;100419;-77
2023/11/16 07:22:57;;;;;;;35.80;15.10;;;;;;;1.44;100.00;100725.29;105422;1257;97973;-76
2023/11/16 07:25:44;;;;;;;54.00;15.80;;;;;;;1.47;100.00;100724.77;105475;1260;97976;-76
2023/11/16 07:28:30;;;;;;;28.20;14.40;;;;;;;1.46;100.00;100729.22;105519;1261;98527;-77
2023/11/16 07:31:19;;;;;;;49.80;15.20;;;;;;;1.47;100.00;100730.90;105651;1259;101986;-77
2023/11/16 07:34:05;;;;;;;43.90;14.40;;;;;;;1.49;100.00;100733.92;106257;1259;100294;-82
2023/11/16 07:36:51;;;;;;;40.40;15.10;;;;;;;1.49;100.00;100737.29;106224;1260;99906;-81
2023/11/16 07:39:38;;;;;;;24.70;14.90;;;;;;;1.49;100.00;100738.27;106366;1260;98082;-80
2023/11/16 07:42:24;;;;;;;30.40;15.70;;;;;;;1.52;100.00;100741.03;106775;1255;98373;-80
2023/11/16 07:45:15;;;;;;;30.90;16.70;;;;;;;1.55;100.00;100738.65;106459;1257;103019;-79
2023/11/16 07:48:03;;;;;;;49.90;17.10;;;;;;;1.58;100.00;100740.55;106067;1257;100537;-79
2023/11/16 07:50:51;;;;;;;47.40;15.30;;;;;;;1.52;100.00;100731.17;106058;1257;98186;-82
2023/11/16 07:53:41;;;;;;;45.60;15.50;;;;;;;1.47;100.00;100727.75;106416;1262;99403;-83
2023/11/16 07:56:28;;;;;;;33.70;16.90;;;;;;;1.43;100.00;100729.26;106645;1257;97977;-81
2023/11/16 07:59:18;;;;;;;30.80;16.90;;;;;;;1.45;100.00;100726.99;106932;1260;101485;-81
2023/11/16 08:02:04;;;;;;;31.90;16.70;;;;;;;1.51;100.00;100723.31;106863;1257;100863;-82
2023/11/16 08:04:50;;;;;;;36.40;17.20;;;;;;;1.57;100.00;100722.20;106824;1255;98969;-76
2023/11/16 08:07:37;;;;;;;45.90;19.30;;;;;;;1.62;100.00;100730.02;105585;1260;97970;-75
2023/11/16 08:10:23;;;;;;;48.80;17.90;;;;;;;1.65;100.00;100734.74;105623;1259;98545;-76
2023/11/16 08:13:11;;;;;;;74.30;19.00;;;;;;;1.67;100.00;100732.27;105523;1259;101446;-76
2023/11/16 08:15:59;;;;;;;40.60;18.20;;;;;;;1.69;100.00;100732.41;105619;1259;99061;-82
2023/11/16 08:18:44;;;;;;;51.80;18.40;;;;;;;1.70;100.00;100735.85;106389;1256;97906;-78
2023/11/16 08:21:31;;;;;;;43.30;19.50;;;;;;;1.71;100.00;100732.23;106664;1254;97966;-87
2023/11/16 08:24:18;;;;;;;44.90;18.90;;;;;;;1.75;100.00;100732.99;106424;1259;99259;-78
2023/11/16 08:27:03;;;;;;;50.00;26.50;;;;;;;1.87;100.00;100729.35;105804;1259;101373;-78
2023/11/16 08:29:49;;;;;;;77.00;23.50;;;;;;;2.09;100.00;100729.88;105991;1257;99110;-79
2023/11/16 08:32:35;;;;;;;72.60;34.10;;;;;;;2.26;100.00;100725.64;106146;1259;97975;-79
2023/11/16 08:35:23;;;;;;;56.50;21.00;;;;;;;2.38;100.00;100715.74;106158;1259;98585;-78
2023/11/16 08:38:14;;;;;;;54.60;19.60;;;;;;;2.50;100.00;100713.83;106155;1257;97889;-79
2023/11/16 08:40:59;;;;;;;;;;;;;;;2.59;100.00;100721.16;106254;1257;103078;-78
2023/11/16 08:43:47;;;;;;;38.40;14.70;;;;;;;2.57;100.00;100726.45;106126;1256;100548;-79
2023/11/16 08:46:41;;;;;;;29.70;13.70;;;;;;;2.56;100.00;100727.44;106193;1257;98363;-79
2023/11/16 08:49:26;;;;;;;60.70;16.70;;;;;;;2.57;100.00;100723.64;106070;1257;97868;-77
2023/11/16 08:52:14;;;;;;;35.50;15.90;;;;;;;2.59;100.00;100724.33;105823;1259;97873;-79
2023/11/16 08:55:00;;;;;;;74.50;18.60;;;;;;;2.58;100.00;100728.81;105774;1259;101381;-77
2023/11/16 08:57:47;;;;;;;33.10;16.70;;;;;;;2.55;100.00;100725.04;105755;1259;100411;-78
2023/11/16 09:00:37;;;;;;;58.40;18.50;;;;;;;2.54;100.00;100730.09;105806;1259;97960;-76
2023/11/16 09:03:25;;;;;;;52.90;16.70;;;;;;;2.54;100.00;100733.41;105718;1256;97890;-77
2023/11/16 09:06:15;;;;;;;37.20;16.00;;;;;;;2.55;100.00;100731.21;106172;1255;97876;-78
2023/11/16 09:09:09;;;;;;;45.70;14.50;;;;;;;2.58;100.00;100727.46;106161;1259;101336;-78
2023/11/16 09:11:54;;;;;;;39.40;14.90;;;;;;;2.59;100.00;100726.42;106122;1256;99065;-79
2023/11/16 09:14:41;;;;;;;36.70;15.90;;;;;;;2.60;100.00;100720.84;106248;1258;98069;-78
2023/11/16 09:17:27;;;;;;;34.30;15.80;;;;;;;2.64;100.00;100717.16;105856;1256;98069;-78
2023/11/16 09:20:13;;;;;;;37.40;16.40;;;;;;;2.66;100.00;100718.78;105620;1257;98489;-77
2023/11/16 09:23:00;;;;;;;48.90;18.50;;;;;;;2.65;100.00;100719.02;105674;1260;101415;-77
2023/11/16 09:25:46;;;;;;;32.90;16.60;;;;;;;2.64;100.00;100718.58;105638;1261;99232;-79
2023/11/16 09:28:35;;;;;;;57.20;16.30;;;;;;;2.66;100.00;100722.17;105720;1256;98598;-78
2023/11/16 09:31:21;;;;;;;29.60;16.60;;;;;;;2.69;100.00;100723.11;105859;1259;98598;-79
2023/11/16 09:34:07;;;;;;;47.40;16.90;;;;;;;2.73;100.00;100719.19;106182;1259;99677;-81
2023/11/16 09:36:52;;;;;;;54.00;16.40;;;;;;;2.78;100.00;100718.63;106121;1256;103116;-76
2023/11/16 09:39:38;;;;;;;56.70;19.80;;;;;;;2.80;100.00;100715.40;105687;1257;100391;-77
2023/11/16 09:42:26;;;;;;;39.40;20.70;;;;;;;2.81;100.00;100713.19;105642;1256;98826;-77
2023/11/16 09:45:13;;;;;;;49.90;18.80;;;;;;;2.83;100.00;100710.36;105652;1254;97952;-77
2023/11/16 09:48:10;;;;;;;48.50;20.50;;;;;;;2.85;100.00;100706.55;106052;1257;98453;-78
2023/11/16 09:50:56;;;;;;;35.60;17.30;;;;;;;2.87;100.00;100705.81;105538;1257;102325;-77
2023/11/16 09:53:43;;;;;;;47.00;19.20;;;;;;;2.91;100.00;100702.45;105662;1257;99146;-78
2023/11/16 09:56:31;;;;;;;48.30;21.30;;;;;;;2.94;100.00;100699.53;105680;1260;98009;-76
2023/11/16 09:59:27;;;;;;;67.20;24.70;;;;;;;2.96;100.00;100700.54;105760;1259;97881;-77
2023/11/16 10:02:15;;;;;;;42.00;19.00;;;;;;;3.01;100.00;100702.80;105805;1256;98503;-77
2023/11/16 10:05:01;;;;;;;41.80;21.10;;;;;;;3.01;100.00;100701.15;105763;1257;101380;-78
2023/11/16 10:07:51;;;;;;;47.40;20.60;;;;;;;3.00;100.00;100697.70;105736;1259;100440;-78
2023/11/16 10:10:37;;;;;;;51.40;22.90;;;;;;;3.01;100.00;100694.31;106046;1260;99506;-81
2023/11/16 10:13:27;;;;;;;50.00;21.10;;;;;;;3.04;100.00;100695.29;106143;1259;97891;-80
2023/11/16 10:16:12;;;;;;;43.80;21.40;;;;;;;3.07;100.00;100692.88;106352;1257;96465;-81
2023/11/16 10:19:10;;;;;;;45.60;21.30;;;;;;;3.12;100.00;100692.77;106253;1256;102615;-80
2023/11/16 10:21:57;;;;;;;40.10;19.50;;;;;;;3.16;100.00;100682.68;106195;1257;99206;-80
2023/11/16 10:24:44;;;;;;;55.60;25.10;;;;;;;3.19;100.00;100678.63;106341;1255;97897;-81
2023/11/16 10:27:32;;;;;;;59.40;27.00;;;;;;;3.18;100.00;100675.64;106299;1260;97951;-80
2023/11/16 10:30:18;;;;;;;63.90;23.70;;;;;;;3.23;100.00;100671.59;108154;1256;96143;-80
2023/11/16 10:33:04;;;;;;;63.10;27.30;;;;;;;3.25;100.00;100666.05;106384;1254;102686;-78
2023/11/16 10:36:00;;;;;;;53.80;24.10;;;;;;;3.29;100.00;100665.67;106113;1259;100342;-81
2023/11/16 10:38:45;;;;;;;35.40;16.80;;;;;;;3.33;100.00;100665.45;106615;1257;99092;-79
2023/11/16 10:41:32;;;;;;;33.30;17.00;;;;;;;3.36;100.00;100667.48;106574;1257;97903;-80
2023/11/16 10:44:17;;;;;;;35.10;15.80;;;;;;;3.41;100.00;100663.86;106341;1254;96226;-79
2023/11/16 10:47:07;;;;;;;32.10;15.70;;;;;;;3.46;100.00;100662.86;106255;1257;102630;-80
2023/11/16 10:49:53;;;;;;;42.30;26.30;;;;;;;3.50;100.00;100660.54;106599;1259;101147;-79
2023/11/16 10:52:40;;;;;;;45.90;23.50;;;;;;;3.53;100.00;100656.87;106619;1256;97960;-80
2023/11/16 10:55:29;;;;;;;40.70;19.30;;;;;;;3.54;100.00;100657.48;106602;1257;95975;-80
2023/11/16 10:58:20;;;;;;;32.80;17.00;;;;;;;3.56;100.00;100657.17;106109;1259;98396;-79
2023/11/16 11:01:10;;;;;;;30.20;15.60;;;;;;;3.58;100.00;100654.35;106587;1259;103160;-80
2023/11/16 11:03:56;;;;;;;32.70;17.90;;;;;;;3.59;100.00;100646.27;106642;1257;100153;-80
2023/11/16 11:06:42;;;;;;;32.40;18.10;;;;;;;3.60;100.00;100643.03;106605;1257;98612;-81
2023/11/16 11:09:44;;;;;;;36.40;19.50;;;;;;;3.59;100.00;100643.95;108156;1255;97864;-80
2023/11/16 11:12:29;;;;;;;41.10;19.60;;;;;;;3.58;100.00;100643.67;106645;1256;98374;-80
2023/11/16 11:15:31;;;;;;;34.50;19.00;;;;;;;3.60;100.00;100641.48;106665;1256;101319;-81
2023/11/16 11:18:25;;;;;;;31.90;17.40;;;;;;;3.62;100.00;100637.35;106856;1255;99226;-81
2023/11/16 11:21:10;;;;;;;34.60;17.80;;;;;;;3.64;100.00;100636.42;107065;1256;97805;-81
2023/11/16 11:23:59;;;;;;;30.70;17.00;;;;;;;3.68;100.00;100636.83;106087;1259;98082;-78
2023/11/16 11:26:48;;;;;;;31.00;17.80;;;;;;;3.70;100.00;100627.54;106482;1259;98475;-78
2023/11/16 11:29:34;;;;;;;35.60;19.80;;;;;;;3.74;100.00;100627.71;106065;1259;101369;-80
2023/11/16 11:32:36;;;;;;;38.40;21.50;;;;;;;3.79;100.00;100625.85;106126;1255;99629;-78
2023/11/16 11:35:25;;;;;;;38.50;20.30;;;;;;;3.82;100.00;100623.98;105986;1260;98487;-80
2023/11/16 11:38:31;;;;;;;35.20;20.80;;;;;;;3.83;100.00;100620.75;106077;1259;98095;-81
2023/11/16 11:41:18;;;;;;;38.60;21.20;;;;;;;3.83;100.00;100619.13;106032;1255;98459;-80
2023/11/16 11:44:07;;;;;;;38.20;22.60;;;;;;;3.84;100.00;100615.44;106123;1257;101396;-81
2023/11/16 11:46:55;;;;;;;40.20;22.10;;;;;;;3.85;100.00;100609.34;106609;1255;99274;-81
2023/11/16 11:49:41;;;;;;;37.90;21.50;;;;;;;3.86;100.00;100606.45;106570;1256;97955;-79
2023/11/16 11:52:31;;;;;;;42.30;21.40;;;;;;;3.86;100.00;100602.58;106509;1254;99208;-79
2023/11/16 11:55:19;;;;;;;45.00;22.20;;;;;;;3.88;100.00;100592.89;106668;1256;98001;-80
2023/11/16 11:58:04;;;;;;;42.30;25.30;;;;;;;3.91;100.00;100583.74;106426;1255;101398;-79
2023/11/16 12:00:51;;;;;;;41.40;23.80;;;;;;;3.95;100.00;100584.42;106437;1254;99133;-79
2023/11/16 12:04:00;;;;;;;43.30;25.10;;;;;;;3.99;100.00;100580.00;105544;1257;97993;-80
2023/11/16 12:06:46;;;;;;;44.60;25.20;;;;;;;4.03;100.00;100576.80;106323;1259;98053;-81
2023/11/16 12:09:31;;;;;;;43.00;25.90;;;;;;;4.06;100.00;100576.31;106303;1256;98864;-80
2023/11/16 12:12:19;;;;;;;42.50;24.90;;;;;;;4.10;100.00;100574.29;106171;1259;102646;-80
2023/11/16 12:15:06;;;;;;;44.30;24.70;;;;;;;4.15;100.00;100568.38;106190;1255;100333;-81
2023/11/16 12:17:52;;;;;;;43.80;24.90;;;;;;;4.20;100.00;100570.21;106337;1258;99102;-81
2023/11/16 12:20:37;;;;;;;39.80;24.70;;;;;;;4.22;100.00;100569.27;106419;1256;98017;-79
2023/11/16 12:23:26;;;;;;;39.50;23.00;;;;;;;4.24;100.00;100567.67;106073;1259;97877;-79
2023/11/16 12:26:14;;;;;;;33.00;20.30;;;;;;;4.27;100.00;100568.47;106397;1254;102321;-81
2023/11/16 12:29:00;;;;;;;35.30;21.00;;;;;;;4.28;100.00;100570.50;106118;1256;99167;-79